Time;durP1;ratioP1;P1;durP2;ratioP2;P2;SDS_P1;SDS_P2;PMS_P1;PMS_P2;Temp;Humidity;BMP_temperature;BMP_pressure;BME280_temperature;BME280_humidity;BME280_pressure;Samples;Min_cycle;Max_cycle;Signal;HPM_P1;HPM_P2
2021/05/24 00:01:02;;;;;;;0.98;0.45;;;;;19.00;100804.00;;;;5070261;28;20199;-77
2021/05/24 00:03:30;;;;;;;2.47;0.47;;;;;18.90;100789.00;;;;5083094;28;20191;-76
2021/05/24 00:05:57;;;;;;;0.55;0.40;;;;;18.90;100794.00;;;;5087984;28;20771;-77
2021/05/24 00:08:23;;;;;;;1.15;0.50;;;;;18.90;100788.00;;;;5084465;28;20227;-78
2021/05/24 00:10:50;;;;;;;4.18;0.40;;;;;18.90;100786.00;;;;5070418;28;20620;-77
2021/05/24 00:13:19;;;;;;;1.38;0.68;;;;;18.80;100795.00;;;;5070136;28;20238;-77
2021/05/24 00:15:47;;;;;;;1.63;0.45;;;;;18.80;100777.00;;;;5070085;28;20206;-77
2021/05/24 00:18:16;;;;;;;0.68;0.43;;;;;18.80;100782.00;;;;5070147;28;20579;-77
2021/05/24 00:20:46;;;;;;;0.47;0.35;;;;;18.80;100771.00;;;;5074609;28;20206;-76
2021/05/24 00:23:12;;;;;;;0.85;0.50;;;;;18.80;100772.00;;;;5071668;28;20186;-76
2021/05/24 00:25:39;;;;;;;1.67;0.80;;;;;18.80;100764.00;;;;5078553;28;20733;-77
2021/05/24 00:28:11;;;;;;;0.90;0.60;;;;;18.80;100765.00;;;;5075371;28;20230;-77
2021/05/24 00:30:38;;;;;;;1.95;0.40;;;;;18.80;100755.00;;;;5070089;28;20211;-77
2021/05/24 00:33:06;;;;;;;0.80;0.40;;;;;18.80;100747.00;;;;5068919;28;20226;-77
2021/05/24 00:35:34;;;;;;;1.60;0.40;;;;;18.80;100750.00;;;;5076300;28;20198;-76
2021/05/24 00:38:04;;;;;;;1.50;0.40;;;;;18.80;100744.00;;;;5089954;28;20209;-76
2021/05/24 00:40:31;;;;;;;2.47;0.63;;;;;18.80;100735.00;;;;5076297;28;20332;-78
2021/05/24 00:42:58;;;;;;;0.85;0.50;;;;;18.80;100729.00;;;;5089944;28;20202;-77
2021/05/24 00:45:25;;;;;;;1.30;0.40;;;;;18.80;100727.00;;;;5088720;28;20194;-77
2021/05/24 00:47:52;;;;;;;0.90;0.28;;;;;18.80;100725.00;;;;5074008;28;20273;-77
2021/05/24 00:50:19;;;;;;;0.57;0.40;;;;;18.80;100719.00;;;;5073494;28;20202;-77
2021/05/24 00:52:46;;;;;;;0.70;0.30;;;;;18.80;100721.00;;;;5068957;28;20222;-77
2021/05/24 00:55:15;;;;;;;1.38;0.50;;;;;18.80;100723.00;;;;5077126;28;20194;-76
2021/05/24 00:57:43;;;;;;;0.52;0.43;;;;;18.80;100715.00;;;;5069176;28;20892;-76
2021/05/24 01:00:14;;;;;;;2.42;0.60;;;;;18.80;100721.00;;;;5069151;28;20202;-77
2021/05/24 01:02:41;;;;;;;1.50;0.40;;;;;18.80;100715.00;;;;5070259;28;20195;-77
2021/05/24 01:05:10;;;;;;;1.02;0.43;;;;;18.80;100719.00;;;;5070000;28;20199;-76
2021/05/24 01:07:36;;;;;;;0.68;0.30;;;;;18.90;100706.00;;;;5069680;28;20207;-77
2021/05/24 01:10:04;;;;;;;1.05;0.50;;;;;18.80;100705.00;;;;5088792;28;20198;-77
2021/05/24 01:12:31;;;;;;;1.98;0.40;;;;;18.80;100694.00;;;;5088793;28;20213;-77
2021/05/24 01:14:58;;;;;;;2.28;0.43;;;;;18.90;100690.00;;;;5074483;28;20194;-76
2021/05/24 01:17:25;;;;;;;0.43;0.30;;;;;18.80;100693.00;;;;5088726;28;20191;-77
2021/05/24 01:19:52;;;;;;;1.50;0.45;;;;;18.90;100682.00;;;;5075192;28;20670;-77
2021/05/24 01:22:21;;;;;;;2.88;0.85;;;;;18.80;100681.00;;;;5068042;28;20195;-74
2021/05/24 01:24:49;;;;;;;1.00;0.40;;;;;18.80;100679.00;;;;5086411;28;20237;-77
2021/05/24 01:27:16;;;;;;;4.25;0.40;;;;;18.90;100673.00;;;;5085049;28;20201;-77
2021/05/24 01:29:43;;;;;;;0.57;0.25;;;;;18.80;100675.00;;;;5071424;28;20206;-75
2021/05/24 01:32:10;;;;;;;0.40;0.30;;;;;18.80;100669.00;;;;5068491;28;20199;-75
2021/05/24 01:34:38;;;;;;;0.45;0.32;;;;;18.80;100662.00;;;;5069311;28;20734;-75
2021/05/24 01:37:05;;;;;;;1.48;0.20;;;;;18.80;100665.00;;;;5068952;28;20606;-78
2021/05/24 01:39:33;;;;;;;0.55;0.40;;;;;18.80;100659.00;;;;5071079;28;20611;-78
2021/05/24 01:42:00;;;;;;;1.58;0.35;;;;;18.80;100661.00;;;;5068527;28;20199;-78
2021/05/24 01:44:28;;;;;;;0.50;0.30;;;;;18.80;100658.00;;;;5068714;28;20579;-77
2021/05/24 01:46:55;;;;;;;0.52;0.20;;;;;18.90;100651.00;;;;5084243;28;20209;-76
2021/05/24 01:49:22;;;;;;;0.25;0.20;;;;;18.90;100650.00;;;;5078750;28;20202;-78
2021/05/24 01:51:49;;;;;;;1.38;0.30;;;;;18.90;100646.00;;;;5088596;28;20190;-75
2021/05/24 01:54:15;;;;;;;1.08;0.32;;;;;18.90;100651.00;;;;5078288;28;20218;-77
2021/05/24 01:56:43;;;;;;;0.45;0.30;;;;;18.90;100643.00;;;;5066965;28;20198;-76
2021/05/24 01:59:10;;;;;;;3.53;0.20;;;;;18.90;100642.00;;;;5067282;28;20688;-77
2021/05/24 02:01:37;;;;;;;0.93;0.40;;;;;18.90;100635.00;;;;5066403;28;20936;-75
2021/05/24 02:04:05;;;;;;;0.93;0.40;;;;;18.90;100640.00;;;;5065553;28;20254;-75
2021/05/24 02:06:32;;;;;;;0.70;0.25;;;;;18.90;100637.00;;;;5066513;28;20263;-75
2021/05/24 02:08:59;;;;;;;0.10;0.10;;;;;18.90;100630.00;;;;5066915;28;20231;-74
2021/05/24 02:11:26;;;;;;;2.30;0.40;;;;;18.90;100636.00;;;;5065463;28;20747;-75
2021/05/24 02:13:54;;;;;;;0.60;0.20;;;;;18.90;100637.00;;;;5069131;28;20230;-75
2021/05/24 02:16:32;;;;;;;0.77;0.20;;;;;18.80;100637.00;;;;5085236;28;20214;-75
2021/05/24 02:18:59;;;;;;;0.85;0.30;;;;;18.90;100645.00;;;;5068397;28;20580;-75
2021/05/24 02:24:48;;;;;;;1.38;0.20;;;;;18.90;100648.00;;;;5068894;28;20205;-76
2021/05/24 02:27:14;;;;;;;1.52;0.32;;;;;18.90;100643.00;;;;5067802;28;20201;-77
2021/05/24 02:29:42;;;;;;;0.55;0.10;;;;;18.90;100649.00;;;;5068058;28;20219;-76
2021/05/24 02:32:10;;;;;;;1.13;0.43;;;;;18.90;100639.00;;;;5078805;28;20210;-76
2021/05/24 02:34:36;;;;;;;0.10;0.10;;;;;18.90;100646.00;;;;5086791;28;20229;-76
2021/05/24 02:37:04;;;;;;;0.98;0.22;;;;;18.90;100635.00;;;;5085875;28;20198;-75
2021/05/24 02:39:31;;;;;;;1.00;0.25;;;;;18.90;100626.00;;;;5081111;28;20213;-76
2021/05/24 02:41:58;;;;;;;0.40;0.28;;;;;18.90;100633.00;;;;5092146;28;20567;-76
2021/05/24 02:44:25;;;;;;;0.60;0.30;;;;;18.90;100627.00;;;;5091531;28;20209;-77
2021/05/24 02:46:52;;;;;;;1.15;0.30;;;;;18.90;100627.00;;;;5092947;28;20202;-75
2021/05/24 02:49:19;;;;;;;0.70;0.25;;;;;18.90;100627.00;;;;5082032;28;20205;-76
2021/05/24 02:51:46;;;;;;;0.93;0.20;;;;;18.90;100618.00;;;;5071998;28;20632;-76
2021/05/24 02:54:13;;;;;;;0.10;0.00;;;;;18.90;100607.00;;;;5079535;28;20699;-75
2021/05/24 02:56:39;;;;;;;0.57;0.30;;;;;18.90;100618.00;;;;5072227;28;20203;-76
2021/05/24 02:59:06;;;;;;;0.40;0.30;;;;;18.90;100617.00;;;;5072247;28;20202;-76
2021/05/24 03:01:33;;;;;;;0.50;0.40;;;;;18.90;100619.00;;;;5071753;28;20669;-76
2021/05/24 03:04:03;;;;;;;0.60;0.17;;;;;18.90;100610.00;;;;5071001;28;20194;-76
2021/05/24 03:06:30;;;;;;;0.30;0.20;;;;;18.90;100622.00;;;;5071898;28;20191;-75
2021/05/24 03:08:57;;;;;;;0.65;0.40;;;;;18.90;100610.00;;;;5071432;28;20234;-75
2021/05/24 03:11:24;;;;;;;0.30;0.28;;;;;18.90;100605.00;;;;5071290;28;20194;-76
2021/05/24 03:13:51;;;;;;;0.50;0.28;;;;;18.90;100599.00;;;;5073945;28;20227;-75
2021/05/24 03:16:18;;;;;;;0.50;0.30;;;;;18.90;100596.00;;;;5091107;28;20249;-75
2021/05/24 03:18:45;;;;;;;0.40;0.30;;;;;18.90;100599.00;;;;5089084;28;20209;-75
2021/05/24 03:21:12;;;;;;;0.73;0.17;;;;;18.90;100588.00;;;;5087130;28;20585;-76
2021/05/24 03:23:39;;;;;;;3.83;0.90;;;;;18.90;100611.00;;;;5074289;28;20661;-75
2021/05/24 03:26:06;;;;;;;0.63;0.25;;;;;18.90;100603.00;;;;5070968;28;20191;-76
2021/05/24 03:28:33;;;;;;;2.28;0.22;;;;;18.90;100602.00;;;;5071214;28;20721;-76
2021/05/24 03:30:59;;;;;;;0.77;0.38;;;;;18.90;100605.00;;;;5071594;28;20325;-76
2021/05/24 03:33:26;;;;;;;0.85;0.22;;;;;18.90;100601.00;;;;5073695;28;20696;-76
2021/05/24 03:35:53;;;;;;;0.38;0.30;;;;;18.90;100603.00;;;;5091038;28;20195;-76
2021/05/24 03:38:20;;;;;;;0.60;0.20;;;;;18.90;100617.00;;;;5082871;28;20211;-77
2021/05/24 03:40:47;;;;;;;0.65;0.20;;;;;18.90;100608.00;;;;5070351;28;20199;-76
2021/05/24 03:43:14;;;;;;;0.93;0.30;;;;;18.90;100603.00;;;;5070860;28;20210;-75
2021/05/24 03:45:41;;;;;;;0.73;0.30;;;;;18.90;100595.00;;;;5071873;28;20676;-76
2021/05/24 03:48:08;;;;;;;0.70;0.20;;;;;18.80;100589.00;;;;5072196;28;20198;-76
2021/05/24 03:50:35;;;;;;;0.38;0.10;;;;;18.80;100596.00;;;;5070207;28;20194;-75
2021/05/24 03:53:02;;;;;;;0.15;0.10;;;;;18.80;100611.00;;;;5069902;28;20195;-77
2021/05/24 03:55:29;;;;;;;0.60;0.15;;;;;18.80;100615.00;;;;5075653;28;20264;-76
2021/05/24 03:57:56;;;;;;;7.43;0.35;;;;;18.80;100613.00;;;;5073224;28;20396;-76
2021/05/24 04:00:23;;;;;;;0.75;0.40;;;;;18.80;100607.00;;;;5078813;28;20195;-75
2021/05/24 04:02:50;;;;;;;1.08;0.20;;;;;18.80;100598.00;;;;5070552;28;20199;-75
2021/05/24 04:05:18;;;;;;;1.35;0.43;;;;;18.80;100615.00;;;;5071304;28;20207;-76
2021/05/24 04:07:49;;;;;;;1.20;0.20;;;;;18.80;100609.00;;;;5087051;28;20236;-76
2021/05/24 04:10:18;;;;;;;0.50;0.10;;;;;18.80;100613.00;;;;5074818;28;20202;-76
2021/05/24 04:12:46;;;;;;;0.20;0.10;;;;;18.80;100622.00;;;;5071641;28;20214;-76
2021/05/24 04:15:14;;;;;;;0.57;0.20;;;;;18.80;100609.00;;;;5070363;28;20210;-75
2021/05/24 04:17:42;;;;;;;1.17;0.30;;;;;18.80;100610.00;;;;5079712;28;20233;-75
2021/05/24 04:20:11;;;;;;;0.20;0.10;;;;;18.80;100623.00;;;;5078507;28;20199;-76
2021/05/24 04:22:38;;;;;;;0.30;0.20;;;;;18.80;100629.00;;;;5070951;28;20214;-75
2021/05/24 04:25:06;;;;;;;0.20;0.20;;;;;18.80;100623.00;;;;5070185;28;20206;-75
2021/05/24 04:27:33;;;;;;;1.92;0.20;;;;;18.70;100630.00;;;;5070335;28;20202;-76
2021/05/24 04:30:01;;;;;;;0.40;0.15;;;;;18.70;100617.00;;;;5070840;28;20195;-75
2021/05/24 04:32:28;;;;;;;0.30;0.20;;;;;18.70;100622.00;;;;5072356;28;20207;-75
2021/05/24 04:34:54;;;;;;;0.22;0.17;;;;;18.60;100630.00;;;;5070200;28;20215;-76
2021/05/24 04:37:21;;;;;;;2.08;0.40;;;;;18.60;100624.00;;;;5070115;28;20676;-76
2021/05/24 04:39:48;;;;;;;0.95;0.32;;;;;18.60;100626.00;;;;5070954;28;20206;-76
2021/05/24 04:42:15;;;;;;;0.95;0.22;;;;;18.50;100615.00;;;;5069510;28;20207;-76
2021/05/24 04:44:42;;;;;;;1.17;0.38;;;;;18.50;100635.00;;;;5069992;28;20683;-76
2021/05/24 04:47:09;;;;;;;0.50;0.20;;;;;18.40;100627.00;;;;5070287;28;20195;-75
2021/05/24 04:49:36;;;;;;;0.88;0.22;;;;;18.40;100622.00;;;;5069974;28;20569;-76
2021/05/24 04:52:03;;;;;;;0.30;0.30;;;;;18.40;100619.00;;;;5069937;28;20198;-76
2021/05/24 04:54:30;;;;;;;0.60;0.20;;;;;18.40;100625.00;;;;5077279;28;20553;-75
2021/05/24 04:56:57;;;;;;;0.75;0.32;;;;;18.30;100624.00;;;;5090370;28;20206;-75
2021/05/24 04:59:24;;;;;;;0.30;0.22;;;;;18.30;100628.00;;;;5089978;28;20676;-76
2021/05/24 05:01:50;;;;;;;1.75;0.30;;;;;18.30;100623.00;;;;5072420;28;20199;-76
2021/05/24 05:04:18;;;;;;;1.95;0.30;;;;;18.30;100628.00;;;;5075837;28;20205;-75
2021/05/24 05:06:45;;;;;;;0.45;0.30;;;;;18.20;100621.00;;;;5073023;28;20232;-76
2021/05/24 05:09:12;;;;;;;2.42;0.50;;;;;18.20;100623.00;;;;5072383;28;20226;-75
2021/05/24 05:11:39;;;;;;;0.95;0.40;;;;;18.20;100619.00;;;;5078121;28;20206;-76
2021/05/24 05:14:06;;;;;;;1.35;0.35;;;;;18.20;100621.00;;;;5076239;28;20218;-76
2021/05/24 05:16:33;;;;;;;0.70;0.43;;;;;18.20;100621.00;;;;5068876;28;20218;-74
2021/05/24 05:19:00;;;;;;;0.60;0.20;;;;;18.20;100623.00;;;;5085246;28;20199;-75
2021/05/24 05:21:27;;;;;;;0.25;0.17;;;;;18.10;100622.00;;;;5077144;28;20313;-76
2021/05/24 05:23:54;;;;;;;1.27;0.38;;;;;18.20;100623.00;;;;5068455;28;20732;-75
2021/05/24 05:26:21;;;;;;;0.85;0.40;;;;;18.20;100623.00;;;;5077330;28;20199;-76
2021/05/24 05:28:47;;;;;;;1.20;0.50;;;;;18.20;100623.00;;;;5088304;28;20222;-73
2021/05/24 05:31:14;;;;;;;0.73;0.20;;;;;18.20;100625.00;;;;5082611;28;20209;-73
2021/05/24 05:33:41;;;;;;;1.08;0.28;;;;;18.20;100619.00;;;;5082577;28;20388;-73
2021/05/24 05:36:08;;;;;;;0.73;0.40;;;;;18.20;100621.00;;;;5081189;28;20264;-75
2021/05/24 05:38:36;;;;;;;0.52;0.20;;;;;18.20;100616.00;;;;5079235;28;20228;-75
2021/05/24 05:41:04;;;;;;;0.50;0.30;;;;;18.20;100612.00;;;;5072515;28;22021;-75
2021/05/24 05:43:31;;;;;;;0.57;0.25;;;;;18.20;100614.00;;;;5079530;28;20206;-75
2021/05/24 05:45:58;;;;;;;0.47;0.30;;;;;18.30;100610.00;;;;5071675;28;20209;-75
2021/05/24 05:48:25;;;;;;;1.33;0.20;;;;;18.30;100609.00;;;;5077535;28;20700;-74
2021/05/24 05:50:52;;;;;;;0.90;0.28;;;;;18.30;100610.00;;;;5072753;28;20281;-75
2021/05/24 05:53:18;;;;;;;0.90;0.30;;;;;18.30;100612.00;;;;5068217;28;20215;-75
2021/05/24 05:55:46;;;;;;;1.55;0.65;;;;;18.20;100606.00;;;;5069415;28;20195;-75
2021/05/24 05:58:13;;;;;;;1.13;0.52;;;;;18.30;100603.00;;;;5067728;28;20233;-75
2021/05/24 06:00:39;;;;;;;2.47;0.47;;;;;18.30;100607.00;;;;5071960;28;20199;-75
2021/05/24 06:03:06;;;;;;;0.30;0.15;;;;;18.20;100603.00;;;;5068126;28;20199;-75
2021/05/24 06:05:34;;;;;;;0.50;0.22;;;;;18.20;100610.00;;;;5068035;28;20676;-75
2021/05/24 06:08:00;;;;;;;0.82;0.20;;;;;18.20;100614.00;;;;5067877;28;20296;-75
2021/05/24 06:10:27;;;;;;;0.50;0.30;;;;;18.20;100608.00;;;;5073177;28;20194;-75
2021/05/24 06:12:54;;;;;;;0.20;0.17;;;;;18.10;100618.00;;;;5074592;28;20198;-75
2021/05/24 06:15:21;;;;;;;0.43;0.30;;;;;18.10;100620.00;;;;5080812;28;20586;-75
2021/05/24 06:17:48;;;;;;;0.55;0.30;;;;;18.10;100624.00;;;;5081902;28;20205;-75
2021/05/24 06:20:16;;;;;;;0.38;0.10;;;;;18.10;100618.00;;;;5073270;28;21109;-74
2021/05/24 06:22:43;;;;;;;0.63;0.30;;;;;18.10;100616.00;;;;5068165;28;20226;-74
2021/05/24 06:25:11;;;;;;;0.40;0.20;;;;;18.00;100608.00;;;;5073297;28;20191;-75
2021/05/24 06:27:39;;;;;;;0.20;0.20;;;;;18.00;100622.00;;;;5087193;28;20209;-75
2021/05/24 06:30:08;;;;;;;0.50;0.17;;;;;18.00;100623.00;;;;5071093;28;20583;-76
2021/05/24 06:32:36;;;;;;;0.63;0.20;;;;;18.00;100614.00;;;;5068654;28;20198;-75
2021/05/24 06:35:04;;;;;;;0.50;0.22;;;;;18.00;100615.00;;;;5077352;28;20218;-75
2021/05/24 06:37:30;;;;;;;0.77;0.20;;;;;18.00;100607.00;;;;5071465;28;20633;-74
2021/05/24 06:39:57;;;;;;;0.20;0.20;;;;;18.00;100606.00;;;;5077027;28;20195;-74
2021/05/24 06:42:24;;;;;;;2.95;0.57;;;;;18.00;100606.00;;;;5078577;28;20191;-73
2021/05/24 06:44:51;;;;;;;0.30;0.20;;;;;18.00;100604.00;;;;5073982;28;20206;-74
2021/05/24 06:47:19;;;;;;;1.48;0.22;;;;;18.00;100603.00;;;;5069438;28;20256;-74
2021/05/24 06:49:46;;;;;;;0.28;0.20;;;;;18.10;100599.00;;;;5077070;28;20198;-74
2021/05/24 06:52:12;;;;;;;1.38;0.60;;;;;18.10;100599.00;;;;5077482;28;20217;-74
2021/05/24 06:54:39;;;;;;;1.08;0.40;;;;;18.10;100604.00;;;;5076602;28;20222;-74
2021/05/24 06:57:07;;;;;;;0.73;0.35;;;;;18.20;100595.00;;;;5068491;28;20211;-74
2021/05/24 06:59:35;;;;;;;0.52;0.45;;;;;18.20;100604.00;;;;5079850;28;20704;-74
2021/05/24 07:02:01;;;;;;;0.88;0.60;;;;;18.20;100598.00;;;;5075488;28;20199;-75
2021/05/24 07:04:29;;;;;;;1.33;0.77;;;;;18.30;100596.00;;;;5074275;28;20187;-74
2021/05/24 07:06:56;;;;;;;1.45;0.93;;;;;18.30;100601.00;;;;5080408;28;20214;-74
2021/05/24 07:09:23;;;;;;;0.82;0.50;;;;;18.40;100601.00;;;;5078759;28;20229;-76
2021/05/24 07:11:49;;;;;;;1.13;0.30;;;;;18.40;100607.00;;;;5080049;28;20615;-75
2021/05/24 07:14:17;;;;;;;0.40;0.20;;;;;18.40;100611.00;;;;5082618;28;20230;-76
2021/05/24 07:16:44;;;;;;;1.17;0.47;;;;;18.40;100604.00;;;;5074131;28;20191;-75
2021/05/24 07:19:10;;;;;;;0.73;0.30;;;;;18.50;100593.00;;;;5076546;28;20520;-75
2021/05/24 07:21:38;;;;;;;0.35;0.13;;;;;18.50;100604.00;;;;5077890;28;20199;-75
2021/05/24 07:24:05;;;;;;;0.25;0.20;;;;;18.50;100596.00;;;;5079723;28;20207;-75
2021/05/24 07:26:32;;;;;;;1.30;0.32;;;;;18.60;100603.00;;;;5076875;28;20202;-75
2021/05/24 07:28:59;;;;;;;0.22;0.10;;;;;18.60;100603.00;;;;5087172;28;20206;-76
2021/05/24 07:31:25;;;;;;;0.55;0.40;;;;;18.70;100602.00;;;;5074921;28;20232;-75
2021/05/24 07:33:52;;;;;;;0.35;0.13;;;;;18.70;100596.00;;;;5076239;28;20223;-76
2021/05/24 07:36:21;;;;;;;0.20;0.10;;;;;18.80;100591.00;;;;5080550;28;20240;-79
2021/05/24 07:38:48;;;;;;;0.40;0.35;;;;;18.80;100587.00;;;;5073794;28;20203;-76
2021/05/24 07:41:16;;;;;;;0.95;0.40;;;;;18.80;100587.00;;;;5078741;28;20272;-75
2021/05/24 07:43:42;;;;;;;1.52;0.40;;;;;18.80;100583.00;;;;5085227;28;20570;-75
2021/05/24 07:46:09;;;;;;;1.83;0.50;;;;;18.80;100589.00;;;;5089158;28;20202;-76
2021/05/24 07:48:36;;;;;;;0.93;0.30;;;;;18.80;100592.00;;;;5091551;28;20601;-76
2021/05/24 07:51:03;;;;;;;0.63;0.38;;;;;18.80;100587.00;;;;5077913;28;20802;-76
2021/05/24 07:53:30;;;;;;;1.13;0.35;;;;;18.80;100583.00;;;;5090181;28;20713;-75
2021/05/24 07:55:58;;;;;;;1.55;0.30;;;;;18.80;100591.00;;;;5071580;28;20579;-76
2021/05/24 07:58:25;;;;;;;0.75;0.30;;;;;18.80;100583.00;;;;5071030;28;20680;-76
2021/05/24 08:00:51;;;;;;;2.15;0.20;;;;;18.90;100586.00;;;;5071120;28;20210;-78
2021/05/24 08:03:18;;;;;;;0.47;0.22;;;;;18.90;100590.00;;;;5067654;28;20211;-77
2021/05/24 08:05:45;;;;;;;0.40;0.22;;;;;18.90;100592.00;;;;5084565;28;20198;-76
2021/05/24 08:08:11;;;;;;;0.32;0.20;;;;;18.90;100592.00;;;;5074940;28;20271;-77
2021/05/24 08:10:38;;;;;;;0.75;0.30;;;;;18.90;100592.00;;;;5083989;28;20259;-76
2021/05/24 08:13:06;;;;;;;0.70;0.20;;;;;18.90;100593.00;;;;5068707;28;20195;-77
2021/05/24 08:15:33;;;;;;;0.70;0.30;;;;;18.90;100602.00;;;;5069791;28;20287;-79
2021/05/24 08:18:04;;;;;;;1.13;0.20;;;;;18.80;100598.00;;;;5067823;28;20206;-78
2021/05/24 08:20:32;;;;;;;0.70;0.40;;;;;18.80;100591.00;;;;5073909;28;20198;-79
2021/05/24 08:22:59;;;;;;;1.00;0.40;;;;;18.90;100593.00;;;;5068280;28;20206;-76
2021/05/24 08:25:25;;;;;;;0.63;0.20;;;;;18.90;100590.00;;;;5068887;28;20810;-76
2021/05/24 08:27:52;;;;;;;0.60;0.25;;;;;18.90;100586.00;;;;5081969;28;20206;-77
2021/05/24 08:30:21;;;;;;;0.40;0.25;;;;;18.90;100588.00;;;;5069608;28;20595;-76
2021/05/24 08:32:48;;;;;;;0.43;0.22;;;;;19.00;100589.00;;;;5079801;28;20198;-77
2021/05/24 08:35:14;;;;;;;0.60;0.40;;;;;19.00;100582.00;;;;5076085;28;20233;-76
2021/05/24 08:37:41;;;;;;;0.50;0.13;;;;;19.10;100577.00;;;;5076516;28;20199;-76
2021/05/24 08:40:09;;;;;;;0.57;0.30;;;;;19.10;100582.00;;;;5071829;28;20240;-77
2021/05/24 08:42:41;;;;;;;0.85;0.20;;;;;19.10;100589.00;;;;5076552;28;20243;-77
2021/05/24 08:45:09;;;;;;;0.88;0.40;;;;;19.20;100582.00;;;;5066700;28;20469;-76
2021/05/24 08:47:55;;;;;;;0.60;0.55;;;;;19.10;100581.00;;;;5070194;28;20207;-76
2021/05/24 08:50:22;;;;;;;1.00;0.20;;;;;19.20;100579.00;;;;5063011;28;20226;-74
2021/05/24 08:52:49;;;;;;;0.52;0.22;;;;;19.30;100571.00;;;;5080314;28;20199;-74
2021/05/24 08:55:16;;;;;;;0.50;0.28;;;;;19.30;100570.00;;;;5082964;28;20715;-76
2021/05/24 08:57:43;;;;;;;1.77;0.50;;;;;19.30;100573.00;;;;5086439;28;20224;-76
2021/05/24 09:00:13;;;;;;;1.38;0.43;;;;;19.30;100570.00;;;;5076393;28;20248;-76
2021/05/24 09:02:40;;;;;;;0.28;0.10;;;;;19.30;100571.00;;;;5079169;28;20205;-76
2021/05/24 09:05:10;;;;;;;0.95;0.38;;;;;19.30;100570.00;;;;5075505;28;20195;-77
2021/05/24 09:07:50;;;;;;;0.75;0.40;;;;;19.20;100571.00;;;;5088510;28;20198;-77
2021/05/24 09:10:18;;;;;;;0.68;0.40;;;;;19.30;100574.00;;;;5082342;28;20194;-76
2021/05/24 09:12:44;;;;;;;0.50;0.40;;;;;19.40;100578.00;;;;5086455;28;20202;-77
2021/05/24 09:15:15;;;;;;;0.73;0.50;;;;;19.30;100576.00;;;;5071534;28;20272;-77
2021/05/24 09:17:44;;;;;;;0.57;0.20;;;;;19.30;100574.00;;;;5072728;28;20310;-77
2021/05/24 09:20:27;;;;;;;0.77;0.28;;;;;19.20;100573.00;;;;5076016;28;20203;-76
2021/05/24 09:23:22;;;;;;;0.93;0.50;;;;;19.20;100582.00;;;;5078149;28;20191;-77
2021/05/24 09:26:04;;;;;;;0.60;0.35;;;;;19.30;100574.00;;;;5029395;28;20205;-77
2021/05/24 09:28:40;;;;;;;0.30;0.20;;;;;19.30;100577.00;;;;5081064;28;20257;-77
2021/05/24 09:31:12;;;;;;;0.60;0.30;;;;;19.30;100574.00;;;;5106544;28;20246;-76
2021/05/24 09:33:40;;;;;;;2.03;0.20;;;;;19.40;100580.00;;;;5106904;28;20235;-76
2021/05/24 09:36:08;;;;;;;1.27;0.65;;;;;19.30;100581.00;;;;5097787;28;20727;-76
2021/05/24 09:38:41;;;;;;;0.55;0.25;;;;;19.30;100587.00;;;;5066241;28;20199;-77
2021/05/24 09:41:10;;;;;;;0.98;0.40;;;;;19.30;100589.00;;;;5067399;28;20289;-77
2021/05/24 09:43:38;;;;;;;1.85;0.30;;;;;19.30;100581.00;;;;5067876;28;20199;-76
2021/05/24 09:46:19;;;;;;;1.45;0.50;;;;;19.20;100593.00;;;;5067398;28;20233;-76
2021/05/24 09:48:49;;;;;;;0.30;0.30;;;;;19.10;100603.00;;;;5067147;28;20202;-76
2021/05/24 09:51:18;;;;;;;0.50;0.30;;;;;19.10;100600.00;;;;5068283;28;20580;-76
2021/05/24 09:54:00;;;;;;;0.30;0.30;;;;;19.00;100602.00;;;;5080242;28;20226;-79
2021/05/24 09:56:28;;;;;;;0.80;0.22;;;;;19.00;100606.00;;;;5070159;28;20668;-82
2021/05/24 09:59:06;;;;;;;0.60;0.40;;;;;18.90;100601.00;;;;5067426;28;20684;-81
2021/05/24 10:01:37;;;;;;;1.63;0.40;;;;;19.00;100599.00;;;;5077524;28;20194;-82
2021/05/24 10:04:05;;;;;;;1.75;0.55;;;;;19.00;100596.00;;;;5089196;28;20209;-83
2021/05/24 10:06:34;;;;;;;0.40;0.40;;;;;19.00;100601.00;;;;5087081;28;20190;-81
2021/05/24 10:09:02;;;;;;;0.77;0.47;;;;;19.00;100592.00;;;;5086590;28;20716;-81
2021/05/24 10:11:29;;;;;;;0.40;0.30;;;;;19.00;100596.00;;;;5085725;28;20201;-81
2021/05/24 10:13:57;;;;;;;2.03;0.20;;;;;19.00;100582.00;;;;5088831;28;20310;-81
2021/05/24 10:16:29;;;;;;;0.68;0.38;;;;;19.00;100582.00;;;;5088458;28;20194;-81
2021/05/24 10:18:55;;;;;;;1.00;0.50;;;;;19.00;100589.00;;;;5089423;28;20202;-79
2021/05/24 10:21:22;;;;;;;0.73;0.50;;;;;19.00;100580.00;;;;5089204;28;20583;-78
2021/05/24 10:23:51;;;;;;;0.90;0.40;;;;;19.10;100579.00;;;;5089144;28;20692;-78
2021/05/24 10:26:19;;;;;;;1.27;0.77;;;;;19.10;100573.00;;;;5088358;28;20285;-79
2021/05/24 10:28:47;;;;;;;0.70;0.45;;;;;19.20;100579.00;;;;5087619;28;20753;-78
2021/05/24 10:31:19;;;;;;;0.95;0.52;;;;;19.20;100572.00;;;;5087623;28;20263;-78
2021/05/24 10:33:48;;;;;;;0.35;0.20;;;;;19.30;100569.00;;;;5088146;28;20213;-77
2021/05/24 10:36:23;;;;;;;0.75;0.45;;;;;19.30;100566.00;;;;5087022;28;20202;-77
2021/05/24 10:39:14;;;;;;;1.00;0.55;;;;;19.30;100569.00;;;;5088811;28;20346;-78
2021/05/24 10:41:59;;;;;;;0.45;0.32;;;;;19.30;100563.00;;;;5088324;28;20190;-79
2021/05/24 10:44:37;;;;;;;0.25;0.20;;;;;19.50;100559.00;;;;5086875;28;20363;-78
2021/05/24 10:47:19;;;;;;;0.28;0.28;;;;;19.40;100557.00;;;;5087973;28;20193;-78
2021/05/24 10:50:04;;;;;;;0.55;0.30;;;;;19.40;100556.00;;;;5088302;28;20194;-77
2021/05/24 10:52:32;;;;;;;0.80;0.35;;;;;19.60;100558.00;;;;5087841;28;20194;-77
2021/05/24 10:55:01;;;;;;;1.83;0.20;;;;;19.60;100555.00;;;;5068359;28;20226;-78
2021/05/24 10:57:30;;;;;;;0.55;0.40;;;;;19.70;100560.00;;;;5067321;28;20187;-78
2021/05/24 11:00:00;;;;;;;0.93;0.30;;;;;19.70;100553.00;;;;5070445;28;20229;-77
2021/05/24 11:02:38;;;;;;;0.52;0.45;;;;;19.70;100561.00;;;;5073049;28;20225;-77
2021/05/24 11:05:07;;;;;;;0.68;0.30;;;;;19.90;100563.00;;;;5071641;28;20665;-77
2021/05/24 11:07:36;;;;;;;1.13;0.75;;;;;19.90;100565.00;;;;5073252;28;20198;-79
2021/05/24 11:10:24;;;;;;;0.70;0.50;;;;;19.80;100559.00;;;;5082817;28;20231;-78
2021/05/24 11:12:52;;;;;;;0.20;0.20;;;;;19.90;100563.00;;;;5072078;28;20198;-78
2021/05/24 11:15:21;;;;;;;0.45;0.32;;;;;19.80;100553.00;;;;5071593;28;20322;-78
2021/05/24 11:18:16;;;;;;;0.70;0.40;;;;;19.70;100552.00;;;;5073204;28;20371;-78
2021/05/24 11:20:47;;;;;;;0.52;0.30;;;;;19.80;100559.00;;;;5092330;28;20267;-77
2021/05/24 11:23:25;;;;;;;0.40;0.30;;;;;19.80;100555.00;;;;5091656;28;20202;-77
2021/05/24 11:26:13;;;;;;;0.68;0.40;;;;;19.80;100560.00;;;;5092203;28;20210;-77
2021/05/24 11:28:41;;;;;;;0.85;0.32;;;;;19.80;100551.00;;;;5092356;28;20249;-78
2021/05/24 11:31:14;;;;;;;0.57;0.43;;;;;19.70;100555.00;;;;5091579;28;20223;-78
2021/05/24 11:33:50;;;;;;;1.95;0.50;;;;;19.80;100561.00;;;;5091302;28;20675;-78
2021/05/24 11:36:20;;;;;;;0.95;0.40;;;;;19.80;100548.00;;;;5091121;28;20341;-78
2021/05/24 11:39:01;;;;;;;0.50;0.35;;;;;19.70;100553.00;;;;5091854;28;20198;-77
2021/05/24 11:41:30;;;;;;;1.23;0.73;;;;;19.80;100559.00;;;;5091047;28;20205;-75
2021/05/24 11:43:59;;;;;;;1.40;0.30;;;;;19.80;100559.00;;;;5091473;28;20672;-76
2021/05/24 11:46:26;;;;;;;1.23;0.50;;;;;19.80;100543.00;;;;5091574;28;20726;-76
2021/05/24 11:48:54;;;;;;;2.13;0.45;;;;;19.80;100539.00;;;;5091560;28;20202;-75
2021/05/24 11:51:33;;;;;;;0.80;0.47;;;;;19.70;100539.00;;;;5090355;28;20668;-76
2021/05/24 11:54:02;;;;;;;0.95;0.70;;;;;19.80;100543.00;;;;5071582;28;20257;-75
2021/05/24 11:56:40;;;;;;;1.60;0.70;;;;;19.80;100541.00;;;;5071260;28;20199;-76
2021/05/24 11:59:09;;;;;;;0.80;0.32;;;;;19.90;100535.00;;;;5070462;28;20202;-75
2021/05/24 12:01:36;;;;;;;0.57;0.32;;;;;19.90;100533.00;;;;5071408;28;20207;-75
2021/05/24 12:04:08;;;;;;;0.93;0.30;;;;;19.90;100539.00;;;;5070448;28;20252;-78
2021/05/24 12:06:48;;;;;;;0.38;0.25;;;;;19.90;100534.00;;;;5070937;28;20206;-75
2021/05/24 12:09:31;;;;;;;0.85;0.50;;;;;20.10;100534.00;;;;5075670;28;20237;-75
2021/05/24 12:12:00;;;;;;;0.95;0.50;;;;;20.10;100536.00;;;;5090147;28;20202;-76
2021/05/24 12:14:27;;;;;;;0.93;0.40;;;;;20.20;100537.00;;;;5091355;28;20233;-75
2021/05/24 12:16:54;;;;;;;0.40;0.38;;;;;20.20;100529.00;;;;5090615;28;20686;-75
2021/05/24 12:19:23;;;;;;;0.57;0.50;;;;;20.30;100520.00;;;;5090588;28;20582;-76